sensor_id;sensor_type;location;lat;lon;timestamp;temperature;humidity
33931;DHT22;20215;53.130;6.408;2023-02-01T00:01:50;12.90;82.30
33931;DHT22;20215;53.130;6.408;2023-02-01T00:04:16;12.90;81.80
33931;DHT22;20215;53.130;6.408;2023-02-01T00:06:42;12.90;81.80
33931;DHT22;20215;53.130;6.408;2023-02-01T00:09:08;12.90;81.80
33931;DHT22;20215;53.130;6.408;2023-02-01T00:11:34;12.90;81.60
33931;DHT22;20215;53.130;6.408;2023-02-01T00:13:59;12.90;81.20
33931;DHT22;20215;53.130;6.408;2023-02-01T00:16:28;12.90;81.50
33931;DHT22;20215;53.130;6.408;2023-02-01T00:19:02;12.90;82.10
33931;DHT22;20215;53.130;6.408;2023-02-01T00:21:29;12.90;81.60
33931;DHT22;20215;53.130;6.408;2023-02-01T00:23:55;12.90;81.40
33931;DHT22;20215;53.130;6.408;2023-02-01T00:26:42;12.90;81.50
33931;DHT22;20215;53.130;6.408;2023-02-01T00:29:17;12.90;81.50
33931;DHT22;20215;53.130;6.408;2023-02-01T00:31:43;12.90;81.50
33931;DHT22;20215;53.130;6.408;2023-02-01T00:34:13;12.90;81.50
33931;DHT22;20215;53.130;6.408;2023-02-01T00:36:40;12.90;81.30
33931;DHT22;20215;53.130;6.408;2023-02-01T00:39:06;12.90;81.50
33931;DHT22;20215;53.130;6.408;2023-02-01T00:41:31;12.90;81.60
33931;DHT22;20215;53.130;6.408;2023-02-01T00:43:57;12.90;81.60
33931;DHT22;20215;53.130;6.408;2023-02-01T00:46:23;12.90;81.70
33931;DHT22;20215;53.130;6.408;2023-02-01T00:48:49;12.90;81.40
33931;DHT22;20215;53.130;6.408;2023-02-01T00:51:17;12.90;81.60
33931;DHT22;20215;53.130;6.408;2023-02-01T00:53:43;12.90;81.60
33931;DHT22;20215;53.130;6.408;2023-02-01T00:56:09;13.00;81.80
33931;DHT22;20215;53.130;6.408;2023-02-01T00:58:35;12.90;81.30
33931;DHT22;20215;53.130;6.408;2023-02-01T01:01:03;13.00;81.70
33931;DHT22;20215;53.130;6.408;2023-02-01T01:03:30;13.00;81.80
33931;DHT22;20215;53.130;6.408;2023-02-01T01:06:00;13.00;81.60
33931;DHT22;20215;53.130;6.408;2023-02-01T01:08:26;13.00;81.60
33931;DHT22;20215;53.130;6.408;2023-02-01T01:10:52;13.00;81.60
33931;DHT22;20215;53.130;6.408;2023-02-01T01:13:18;13.00;81.60
33931;DHT22;20215;53.130;6.408;2023-02-01T01:15:43;13.00;81.40
33931;DHT22;20215;53.130;6.408;2023-02-01T01:18:09;13.00;81.50
33931;DHT22;20215;53.130;6.408;2023-02-01T01:20:37;13.00;81.40
33931;DHT22;20215;53.130;6.408;2023-02-01T01:23:03;13.00;81.50
33931;DHT22;20215;53.130;6.408;2023-02-01T01:25:29;13.00;81.50
33931;DHT22;20215;53.130;6.408;2023-02-01T01:27:55;13.00;81.50
33931;DHT22;20215;53.130;6.408;2023-02-01T01:30:21;13.00;81.50
33931;DHT22;20215;53.130;6.408;2023-02-01T01:32:47;13.00;81.50
33931;DHT22;20215;53.130;6.408;2023-02-01T01:35:13;13.00;81.40
33931;DHT22;20215;53.130;6.408;2023-02-01T01:37:38;13.00;81.60
33931;DHT22;20215;53.130;6.408;2023-02-01T01:40:04;13.00;81.70
33931;DHT22;20215;53.130;6.408;2023-02-01T01:42:41;13.00;81.60
33931;DHT22;20215;53.130;6.408;2023-02-01T01:45:30;13.00;81.60
33931;DHT22;20215;53.130;6.408;2023-02-01T01:50:37;13.00;81.80
33931;DHT22;20215;53.130;6.408;2023-02-01T01:53:05;13.10;82.40
33931;DHT22;20215;53.130;6.408;2023-02-01T01:55:35;13.00;81.90
33931;DHT22;20215;53.130;6.408;2023-02-01T01:58:07;13.00;81.90
33931;DHT22;20215;53.130;6.408;2023-02-01T02:00:34;13.00;81.90
33931;DHT22;20215;53.130;6.408;2023-02-01T02:03:17;13.10;81.70
33931;DHT22;20215;53.130;6.408;2023-02-01T02:05:46;13.00;81.70
33931;DHT22;20215;53.130;6.408;2023-02-01T02:08:12;13.00;82.40
33931;DHT22;20215;53.130;6.408;2023-02-01T02:10:38;13.00;81.80
33931;DHT22;20215;53.130;6.408;2023-02-01T02:13:23;13.10;81.80
33931;DHT22;20215;53.130;6.408;2023-02-01T02:18:52;13.10;81.70
33931;DHT22;20215;53.130;6.408;2023-02-01T02:43:45;13.00;82.40
33931;DHT22;20215;53.130;6.408;2023-02-01T02:46:37;13.00;82.40
33931;DHT22;20215;53.130;6.408;2023-02-01T02:49:56;13.00;82.40
33931;DHT22;20215;53.130;6.408;2023-02-01T02:52:53;13.00;82.10
33931;DHT22;20215;53.130;6.408;2023-02-01T02:55:39;13.00;82.40
33931;DHT22;20215;53.130;6.408;2023-02-01T02:58:07;13.00;82.40
33931;DHT22;20215;53.130;6.408;2023-02-01T03:00:53;13.00;82.50
33931;DHT22;20215;53.130;6.408;2023-02-01T03:03:39;13.00;82.40
33931;DHT22;20215;53.130;6.408;2023-02-01T03:06:24;13.00;82.50
33931;DHT22;20215;53.130;6.408;2023-02-01T03:08:51;13.00;82.30
33931;DHT22;20215;53.130;6.408;2023-02-01T03:11:19;13.00;82.30
33931;DHT22;20215;53.130;6.408;2023-02-01T03:13:57;13.00;82.40
33931;DHT22;20215;53.130;6.408;2023-02-01T03:21:40;13.00;82.40
33931;DHT22;20215;53.130;6.408;2023-02-01T03:26:45;13.00;82.40
33931;DHT22;20215;53.130;6.408;2023-02-01T03:29:16;13.00;82.50
33931;DHT22;20215;53.130;6.408;2023-02-01T03:31:43;13.00;82.60
33931;DHT22;20215;53.130;6.408;2023-02-01T03:34:12;13.00;83.00
33931;DHT22;20215;53.130;6.408;2023-02-01T03:37:01;13.00;82.40
33931;DHT22;20215;53.130;6.408;2023-02-01T03:41:59;13.10;82.40
33931;DHT22;20215;53.130;6.408;2023-02-01T03:44:31;13.10;82.40
33931;DHT22;20215;53.130;6.408;2023-02-01T03:49:32;13.10;82.30
33931;DHT22;20215;53.130;6.408;2023-02-01T03:51:59;13.10;82.20
33931;DHT22;20215;53.130;6.408;2023-02-01T03:54:27;13.10;82.30
33931;DHT22;20215;53.130;6.408;2023-02-01T03:56:55;13.10;82.50
33931;DHT22;20215;53.130;6.408;2023-02-01T03:59:21;13.20;82.50
33931;DHT22;20215;53.130;6.408;2023-02-01T04:01:47;13.20;82.70
33931;DHT22;20215;53.130;6.408;2023-02-01T04:04:13;13.30;82.90
33931;DHT22;20215;53.130;6.408;2023-02-01T04:06:49;13.30;83.10
33931;DHT22;20215;53.130;6.408;2023-02-01T04:09:16;13.30;83.30
33931;DHT22;20215;53.130;6.408;2023-02-01T04:11:41;13.30;83.40
33931;DHT22;20215;53.130;6.408;2023-02-01T04:14:07;13.40;83.60
33931;DHT22;20215;53.130;6.408;2023-02-01T04:16:33;13.40;83.70
33931;DHT22;20215;53.130;6.408;2023-02-01T04:18:59;13.50;83.80
33931;DHT22;20215;53.130;6.408;2023-02-01T04:21:26;13.50;84.10
33931;DHT22;20215;53.130;6.408;2023-02-01T04:23:52;13.60;84.30
33931;DHT22;20215;53.130;6.408;2023-02-01T04:26:18;13.60;84.50
33931;DHT22;20215;53.130;6.408;2023-02-01T04:28:45;13.70;84.80
33931;DHT22;20215;53.130;6.408;2023-02-01T04:31:16;13.80;85.00
33931;DHT22;20215;53.130;6.408;2023-02-01T04:33:43;13.80;84.90
33931;DHT22;20215;53.130;6.408;2023-02-01T04:36:09;13.90;84.90
33931;DHT22;20215;53.130;6.408;2023-02-01T04:38:34;14.00;84.90
33931;DHT22;20215;53.130;6.408;2023-02-01T04:41:00;14.00;85.00
33931;DHT22;20215;53.130;6.408;2023-02-01T04:43:26;14.00;85.00
33931;DHT22;20215;53.130;6.408;2023-02-01T04:45:52;14.10;85.00
33931;DHT22;20215;53.130;6.408;2023-02-01T04:48:21;14.10;85.20
33931;DHT22;20215;53.130;6.408;2023-02-01T04:50:48;14.20;85.10
33931;DHT22;20215;53.130;6.408;2023-02-01T04:53:15;14.20;85.10
33931;DHT22;20215;53.130;6.408;2023-02-01T04:55:41;14.20;85.10
33931;DHT22;20215;53.130;6.408;2023-02-01T04:58:07;14.30;85.10
33931;DHT22;20215;53.130;6.408;2023-02-01T05:00:33;14.30;85.20
33931;DHT22;20215;53.130;6.408;2023-02-01T05:02:58;14.30;85.10
33931;DHT22;20215;53.130;6.408;2023-02-01T05:05:24;14.30;85.10
33931;DHT22;20215;53.130;6.408;2023-02-01T05:07:50;14.30;85.20
33931;DHT22;20215;53.130;6.408;2023-02-01T05:10:16;14.40;85.20
33931;DHT22;20215;53.130;6.408;2023-02-01T05:12:43;14.40;85.30
33931;DHT22;20215;53.130;6.408;2023-02-01T05:15:28;14.40;85.20
33931;DHT22;20215;53.130;6.408;2023-02-01T05:17:54;14.50;85.30
33931;DHT22;20215;53.130;6.408;2023-02-01T05:20:20;14.50;85.00
33931;DHT22;20215;53.130;6.408;2023-02-01T05:22:45;14.50;85.10
33931;DHT22;20215;53.130;6.408;2023-02-01T05:25:11;14.50;85.20
33931;DHT22;20215;53.130;6.408;2023-02-01T05:27:37;14.60;85.00
33931;DHT22;20215;53.130;6.408;2023-02-01T05:30:04;14.60;84.70
33931;DHT22;20215;53.130;6.408;2023-02-01T05:32:30;14.60;84.80
33931;DHT22;20215;53.130;6.408;2023-02-01T05:34:55;14.60;84.80
33931;DHT22;20215;53.130;6.408;2023-02-01T05:37:22;14.60;84.90
33931;DHT22;20215;53.130;6.408;2023-02-01T05:39:47;14.60;84.70
33931;DHT22;20215;53.130;6.408;2023-02-01T05:42:13;14.70;84.70
33931;DHT22;20215;53.130;6.408;2023-02-01T05:44:38;14.70;84.60
33931;DHT22;20215;53.130;6.408;2023-02-01T05:47:04;14.70;84.40
33931;DHT22;20215;53.130;6.408;2023-02-01T05:49:30;14.70;84.40
33931;DHT22;20215;53.130;6.408;2023-02-01T05:51:55;14.70;84.80
33931;DHT22;20215;53.130;6.408;2023-02-01T05:54:21;14.70;84.30
33931;DHT22;20215;53.130;6.408;2023-02-01T05:56:47;14.70;84.00
33931;DHT22;20215;53.130;6.408;2023-02-01T05:59:12;14.60;83.80
33931;DHT22;20215;53.130;6.408;2023-02-01T06:01:38;14.60;83.80
33931;DHT22;20215;53.130;6.408;2023-02-01T06:04:04;14.60;83.70
33931;DHT22;20215;53.130;6.408;2023-02-01T06:06:29;14.60;83.70
33931;DHT22;20215;53.130;6.408;2023-02-01T06:08:55;14.60;83.60
33931;DHT22;20215;53.130;6.408;2023-02-01T06:11:20;14.60;83.10
33931;DHT22;20215;53.130;6.408;2023-02-01T06:13:46;14.60;83.10
33931;DHT22;20215;53.130;6.408;2023-02-01T06:16:11;14.60;83.20
33931;DHT22;20215;53.130;6.408;2023-02-01T06:18:40;14.60;83.10
33931;DHT22;20215;53.130;6.408;2023-02-01T06:21:07;14.50;83.00
33931;DHT22;20215;53.130;6.408;2023-02-01T06:23:32;14.50;82.70
33931;DHT22;20215;53.130;6.408;2023-02-01T06:26:01;14.50;82.60
33931;DHT22;20215;53.130;6.408;2023-02-01T06:28:28;14.50;82.30
33931;DHT22;20215;53.130;6.408;2023-02-01T06:30:54;14.40;82.50
33931;DHT22;20215;53.130;6.408;2023-02-01T06:33:19;14.40;82.40
33931;DHT22;20215;53.130;6.408;2023-02-01T06:35:45;14.40;82.50
33931;DHT22;20215;53.130;6.408;2023-02-01T06:38:11;14.40;82.30
33931;DHT22;20215;53.130;6.408;2023-02-01T06:40:38;14.30;81.80
33931;DHT22;20215;53.130;6.408;2023-02-01T06:43:04;14.30;82.20
33931;DHT22;20215;53.130;6.408;2023-02-01T06:45:29;14.30;82.10
33931;DHT22;20215;53.130;6.408;2023-02-01T06:47:55;14.20;81.80
33931;DHT22;20215;53.130;6.408;2023-02-01T06:50:21;14.20;82.00
33931;DHT22;20215;53.130;6.408;2023-02-01T06:52:47;14.20;82.00
33931;DHT22;20215;53.130;6.408;2023-02-01T06:55:12;14.20;81.90
33931;DHT22;20215;53.130;6.408;2023-02-01T06:57:38;14.20;82.00
33931;DHT22;20215;53.130;6.408;2023-02-01T07:00:04;14.20;82.00
33931;DHT22;20215;53.130;6.408;2023-02-01T07:02:30;14.10;81.90
33931;DHT22;20215;53.130;6.408;2023-02-01T07:04:56;14.20;81.80
33931;DHT22;20215;53.130;6.408;2023-02-01T07:07:22;14.10;81.80
33931;DHT22;20215;53.130;6.408;2023-02-01T07:09:49;14.10;82.00
33931;DHT22;20215;53.130;6.408;2023-02-01T07:12:15;14.10;81.60
33931;DHT22;20215;53.130;6.408;2023-02-01T07:14:40;14.10;81.80
33931;DHT22;20215;53.130;6.408;2023-02-01T07:17:06;14.10;81.50
33931;DHT22;20215;53.130;6.408;2023-02-01T07:19:32;14.10;81.30
33931;DHT22;20215;53.130;6.408;2023-02-01T07:21:58;14.00;81.40
33931;DHT22;20215;53.130;6.408;2023-02-01T07:24:23;14.00;81.30
33931;DHT22;20215;53.130;6.408;2023-02-01T07:26:49;14.00;81.10
33931;DHT22;20215;53.130;6.408;2023-02-01T07:29:17;14.00;81.30
33931;DHT22;20215;53.130;6.408;2023-02-01T07:31:42;13.90;81.20
33931;DHT22;20215;53.130;6.408;2023-02-01T07:34:08;13.90;81.20
33931;DHT22;20215;53.130;6.408;2023-02-01T07:36:34;13.90;80.70
33931;DHT22;20215;53.130;6.408;2023-02-01T07:39:02;13.90;81.20
33931;DHT22;20215;53.130;6.408;2023-02-01T07:41:27;13.90;81.10
33931;DHT22;20215;53.130;6.408;2023-02-01T07:43:53;13.80;81.00
33931;DHT22;20215;53.130;6.408;2023-02-01T07:46:19;13.80;81.00
33931;DHT22;20215;53.130;6.408;2023-02-01T07:48:45;13.80;81.10
33931;DHT22;20215;53.130;6.408;2023-02-01T07:51:12;13.80;81.20
33931;DHT22;20215;53.130;6.408;2023-02-01T07:53:39;13.80;81.10
33931;DHT22;20215;53.130;6.408;2023-02-01T07:56:19;13.80;81.10
33931;DHT22;20215;53.130;6.408;2023-02-01T07:58:49;13.80;81.10
33931;DHT22;20215;53.130;6.408;2023-02-01T08:01:17;13.80;81.00
33931;DHT22;20215;53.130;6.408;2023-02-01T08:03:47;13.80;81.00
33931;DHT22;20215;53.130;6.408;2023-02-01T08:06:13;13.80;81.10
33931;DHT22;20215;53.130;6.408;2023-02-01T08:08:39;13.70;80.80
33931;DHT22;20215;53.130;6.408;2023-02-01T08:11:06;13.70;80.80
33931;DHT22;20215;53.130;6.408;2023-02-01T08:13:34;13.70;80.80
33931;DHT22;20215;53.130;6.408;2023-02-01T08:16:02;13.70;80.90
33931;DHT22;20215;53.130;6.408;2023-02-01T08:18:29;13.70;80.70
33931;DHT22;20215;53.130;6.408;2023-02-01T08:20:54;13.70;80.70
33931;DHT22;20215;53.130;6.408;2023-02-01T08:23:21;13.70;80.70
33931;DHT22;20215;53.130;6.408;2023-02-01T08:25:46;13.60;80.80
33931;DHT22;20215;53.130;6.408;2023-02-01T08:28:12;13.60;80.60
33931;DHT22;20215;53.130;6.408;2023-02-01T08:30:39;13.60;80.70
33931;DHT22;20215;53.130;6.408;2023-02-01T08:33:05;13.60;80.70
33931;DHT22;20215;53.130;6.408;2023-02-01T08:35:33;13.60;80.70
33931;DHT22;20215;53.130;6.408;2023-02-01T08:37:59;13.60;80.80
33931;DHT22;20215;53.130;6.408;2023-02-01T08:40:25;13.60;80.80
33931;DHT22;20215;53.130;6.408;2023-02-01T08:42:50;13.60;80.70
33931;DHT22;20215;53.130;6.408;2023-02-01T08:45:26;13.60;80.40
33931;DHT22;20215;53.130;6.408;2023-02-01T08:47:53;13.60;80.50
33931;DHT22;20215;53.130;6.408;2023-02-01T08:50:20;13.60;80.70
33931;DHT22;20215;53.130;6.408;2023-02-01T08:52:46;13.50;80.60
33931;DHT22;20215;53.130;6.408;2023-02-01T08:55:17;13.50;80.60
33931;DHT22;20215;53.130;6.408;2023-02-01T08:57:43;13.60;80.40
33931;DHT22;20215;53.130;6.408;2023-02-01T09:00:13;13.50;80.60
33931;DHT22;20215;53.130;6.408;2023-02-01T09:02:39;13.50;80.60
33931;DHT22;20215;53.130;6.408;2023-02-01T09:05:05;13.50;80.60
33931;DHT22;20215;53.130;6.408;2023-02-01T09:07:32;13.50;80.40
33931;DHT22;20215;53.130;6.408;2023-02-01T09:09:58;13.50;80.60
33931;DHT22;20215;53.130;6.408;2023-02-01T09:12:27;13.50;80.50
33931;DHT22;20215;53.130;6.408;2023-02-01T09:14:52;13.50;80.60
33931;DHT22;20215;53.130;6.408;2023-02-01T09:17:18;13.50;80.50
33931;DHT22;20215;53.130;6.408;2023-02-01T09:19:43;13.50;80.40
33931;DHT22;20215;53.130;6.408;2023-02-01T09:22:09;13.50;80.50
33931;DHT22;20215;53.130;6.408;2023-02-01T09:24:35;13.50;80.40
33931;DHT22;20215;53.130;6.408;2023-02-01T09:27:00;13.50;80.40
33931;DHT22;20215;53.130;6.408;2023-02-01T09:29:26;13.40;80.30
33931;DHT22;20215;53.130;6.408;2023-02-01T09:31:51;13.40;80.50
33931;DHT22;20215;53.130;6.408;2023-02-01T09:34:17;13.40;80.60
33931;DHT22;20215;53.130;6.408;2023-02-01T09:36:43;13.50;80.40
33931;DHT22;20215;53.130;6.408;2023-02-01T09:39:08;13.40;80.30
33931;DHT22;20215;53.130;6.408;2023-02-01T09:47:14;13.40;80.40
33931;DHT22;20215;53.130;6.408;2023-02-01T09:49:51;13.40;80.20
33931;DHT22;20215;53.130;6.408;2023-02-01T09:52:22;13.40;80.40
33931;DHT22;20215;53.130;6.408;2023-02-01T09:54:55;13.40;80.50
33931;DHT22;20215;53.130;6.408;2023-02-01T09:57:37;13.40;80.10
33931;DHT22;20215;53.130;6.408;2023-02-01T10:00:11;13.40;80.30
33931;DHT22;20215;53.130;6.408;2023-02-01T10:02:42;13.40;80.30
33931;DHT22;20215;53.130;6.408;2023-02-01T10:05:14;13.40;80.20
33931;DHT22;20215;53.130;6.408;2023-02-01T10:07:53;13.30;80.20
33931;DHT22;20215;53.130;6.408;2023-02-01T10:10:47;13.30;80.20
33931;DHT22;20215;53.130;6.408;2023-02-01T10:27:36;13.30;80.30
33931;DHT22;20215;53.130;6.408;2023-02-01T10:32:43;13.30;80.40
33931;DHT22;20215;53.130;6.408;2023-02-01T10:35:27;13.30;80.50
33931;DHT22;20215;53.130;6.408;2023-02-01T10:37:53;13.30;80.60
33931;DHT22;20215;53.130;6.408;2023-02-01T10:40:25;13.30;80.50
33931;DHT22;20215;53.130;6.408;2023-02-01T10:42:54;13.30;80.50
33931;DHT22;20215;53.130;6.408;2023-02-01T10:45:24;13.30;80.40
33931;DHT22;20215;53.130;6.408;2023-02-01T10:47:53;13.30;80.20
33931;DHT22;20215;53.130;6.408;2023-02-01T10:50:34;13.30;80.30
33931;DHT22;20215;53.130;6.408;2023-02-01T10:53:10;13.30;80.40
33931;DHT22;20215;53.130;6.408;2023-02-01T10:55:51;13.30;80.30
33931;DHT22;20215;53.130;6.408;2023-02-01T10:58:28;13.30;80.00
33931;DHT22;20215;53.130;6.408;2023-02-01T11:00:59;13.30;80.30
33931;DHT22;20215;53.130;6.408;2023-02-01T11:03:39;13.30;80.40
33931;DHT22;20215;53.130;6.408;2023-02-01T11:06:11;13.30;80.30
33931;DHT22;20215;53.130;6.408;2023-02-01T11:08:48;13.30;80.50
33931;DHT22;20215;53.130;6.408;2023-02-01T11:11:14;13.30;80.50
33931;DHT22;20215;53.130;6.408;2023-02-01T11:13:40;13.30;80.50
33931;DHT22;20215;53.130;6.408;2023-02-01T11:16:06;13.30;80.50
33931;DHT22;20215;53.130;6.408;2023-02-01T11:18:37;13.30;80.50
33931;DHT22;20215;53.130;6.408;2023-02-01T11:21:04;13.30;80.50
33931;DHT22;20215;53.130;6.408;2023-02-01T11:23:32;13.30;80.50
33931;DHT22;20215;53.130;6.408;2023-02-01T11:26:14;13.30;80.50
33931;DHT22;20215;53.130;6.408;2023-02-01T11:28:47;13.30;80.40
33931;DHT22;20215;53.130;6.408;2023-02-01T11:31:15;13.30;80.50
33931;DHT22;20215;53.130;6.408;2023-02-01T11:34:07;13.30;80.50
33931;DHT22;20215;53.130;6.408;2023-02-01T11:36:32;13.30;80.50
33931;DHT22;20215;53.130;6.408;2023-02-01T11:41:42;13.40;80.50
33931;DHT22;20215;53.130;6.408;2023-02-01T11:47:18;13.30;80.30
33931;DHT22;20215;53.130;6.408;2023-02-01T11:49:44;13.30;80.40
33931;DHT22;20215;53.130;6.408;2023-02-01T11:52:30;13.30;80.50
33931;DHT22;20215;53.130;6.408;2023-02-01T11:58:06;13.30;80.40
33931;DHT22;20215;53.130;6.408;2023-02-01T12:01:06;13.30;80.50
33931;DHT22;20215;53.130;6.408;2023-02-01T12:04:07;13.30;80.60
33931;DHT22;20215;53.130;6.408;2023-02-01T12:06:54;13.30;80.70
33931;DHT22;20215;53.130;6.408;2023-02-01T12:29:03;13.40;80.60
33931;DHT22;20215;53.130;6.408;2023-02-01T12:37:08;13.40;80.60
33931;DHT22;20215;53.130;6.408;2023-02-01T12:42:29;13.40;80.70
33931;DHT22;20215;53.130;6.408;2023-02-01T12:45:19;13.40;80.70
33931;DHT22;20215;53.130;6.408;2023-02-01T12:47:51;13.40;80.70
33931;DHT22;20215;53.130;6.408;2023-02-01T12:52:52;13.40;80.70
33931;DHT22;20215;53.130;6.408;2023-02-01T12:55:33;13.40;80.60
33931;DHT22;20215;53.130;6.408;2023-02-01T12:58:15;13.40;80.60
33931;DHT22;20215;53.130;6.408;2023-02-01T13:09:57;13.40;80.70
33931;DHT22;20215;53.130;6.408;2023-02-01T13:12:40;13.40;80.60
33931;DHT22;20215;53.130;6.408;2023-02-01T13:15:19;13.40;80.80
33931;DHT22;20215;53.130;6.408;2023-02-01T13:17:47;13.40;80.90
33931;DHT22;20215;53.130;6.408;2023-02-01T13:20:35;13.40;80.90
33931;DHT22;20215;53.130;6.408;2023-02-01T13:23:15;13.40;81.10
33931;DHT22;20215;53.130;6.408;2023-02-01T13:25:47;13.40;80.90
33931;DHT22;20215;53.130;6.408;2023-02-01T13:28:20;13.50;80.90
33931;DHT22;20215;53.130;6.408;2023-02-01T13:33:57;13.50;80.90
33931;DHT22;20215;53.130;6.408;2023-02-01T13:41:58;13.40;80.90
33931;DHT22;20215;53.130;6.408;2023-02-01T13:44:40;13.50;80.90
33931;DHT22;20215;53.130;6.408;2023-02-01T13:49:54;13.50;81.00
33931;DHT22;20215;53.130;6.408;2023-02-01T13:52:36;13.50;80.90
33931;DHT22;20215;53.130;6.408;2023-02-01T13:57:40;13.50;80.60
33931;DHT22;20215;53.130;6.408;2023-02-01T14:00:37;13.50;80.60
33931;DHT22;20215;53.130;6.408;2023-02-01T14:03:18;13.50;80.40
33931;DHT22;20215;53.130;6.408;2023-02-01T14:08:14;13.50;80.50
33931;DHT22;20215;53.130;6.408;2023-02-01T14:10:52;13.50;80.50
33931;DHT22;20215;53.130;6.408;2023-02-01T14:16:12;13.60;80.60
33931;DHT22;20215;53.130;6.408;2023-02-01T14:23:57;13.50;80.50
33931;DHT22;20215;53.130;6.408;2023-02-01T14:26:25;13.50;80.50
33931;DHT22;20215;53.130;6.408;2023-02-01T14:28:56;13.50;80.50
33931;DHT22;20215;53.130;6.408;2023-02-01T14:31:34;13.60;80.60
33931;DHT22;20215;53.130;6.408;2023-02-01T14:34:11;13.60;80.60
33931;DHT22;20215;53.130;6.408;2023-02-01T14:36:50;13.50;80.60
33931;DHT22;20215;53.130;6.408;2023-02-01T14:48:38;13.50;80.60
33931;DHT22;20215;53.130;6.408;2023-02-01T14:55:45;13.50;80.70
33931;DHT22;20215;53.130;6.408;2023-02-01T15:01:29;13.60;80.80
33931;DHT22;20215;53.130;6.408;2023-02-01T15:04:14;13.50;81.00
33931;DHT22;20215;53.130;6.408;2023-02-01T15:14:41;13.60;81.10
33931;DHT22;20215;53.130;6.408;2023-02-01T15:17:25;13.60;81.00
33931;DHT22;20215;53.130;6.408;2023-02-01T15:19:58;13.60;81.60
33931;DHT22;20215;53.130;6.408;2023-02-01T15:22:26;13.60;81.20
33931;DHT22;20215;53.130;6.408;2023-02-01T15:24:57;13.60;81.20
33931;DHT22;20215;53.130;6.408;2023-02-01T15:27:23;13.60;81.10
33931;DHT22;20215;53.130;6.408;2023-02-01T15:29:49;13.60;81.20
33931;DHT22;20215;53.130;6.408;2023-02-01T15:32:32;13.60;81.10
33931;DHT22;20215;53.130;6.408;2023-02-01T15:34:59;13.60;81.00
33931;DHT22;20215;53.130;6.408;2023-02-01T15:37:28;13.60;81.10
33931;DHT22;20215;53.130;6.408;2023-02-01T15:40:23;13.60;81.10
33931;DHT22;20215;53.130;6.408;2023-02-01T15:42:57;13.60;80.80
33931;DHT22;20215;53.130;6.408;2023-02-01T15:45:28;13.60;81.20
33931;DHT22;20215;53.130;6.408;2023-02-01T15:47:56;13.60;81.20
33931;DHT22;20215;53.130;6.408;2023-02-01T15:50:22;13.60;81.20
33931;DHT22;20215;53.130;6.408;2023-02-01T15:52:50;13.60;81.10
33931;DHT22;20215;53.130;6.408;2023-02-01T15:55:20;13.60;81.30
33931;DHT22;20215;53.130;6.408;2023-02-01T15:57:47;13.60;81.10
33931;DHT22;20215;53.130;6.408;2023-02-01T16:02:56;13.60;81.30
33931;DHT22;20215;53.130;6.408;2023-02-01T16:05:39;13.60;81.40
33931;DHT22;20215;53.130;6.408;2023-02-01T16:08:16;13.60;81.30
33931;DHT22;20215;53.130;6.408;2023-02-01T16:10:45;13.60;81.20
33931;DHT22;20215;53.130;6.408;2023-02-01T16:13:11;13.60;81.30
33931;DHT22;20215;53.130;6.408;2023-02-01T16:15:37;13.60;81.50
33931;DHT22;20215;53.130;6.408;2023-02-01T16:18:03;13.60;81.40
33931;DHT22;20215;53.130;6.408;2023-02-01T16:20:28;13.60;81.40
33931;DHT22;20215;53.130;6.408;2023-02-01T16:22:55;13.60;81.50
33931;DHT22;20215;53.130;6.408;2023-02-01T16:25:21;13.60;81.50
33931;DHT22;20215;53.130;6.408;2023-02-01T16:27:46;13.60;81.50
33931;DHT22;20215;53.130;6.408;2023-02-01T16:30:12;13.60;81.60
33931;DHT22;20215;53.130;6.408;2023-02-01T16:32:38;13.60;81.40
33931;DHT22;20215;53.130;6.408;2023-02-01T16:35:16;13.50;81.50
33931;DHT22;20215;53.130;6.408;2023-02-01T16:37:45;13.60;81.00
33931;DHT22;20215;53.130;6.408;2023-02-01T16:40:14;13.60;81.60
33931;DHT22;20215;53.130;6.408;2023-02-01T16:42:41;13.50;81.60
33931;DHT22;20215;53.130;6.408;2023-02-01T16:45:08;13.50;81.70
33931;DHT22;20215;53.130;6.408;2023-02-01T16:47:36;13.50;81.60
33931;DHT22;20215;53.130;6.408;2023-02-01T16:50:03;13.60;81.70
33931;DHT22;20215;53.130;6.408;2023-02-01T16:52:29;13.60;81.80
33931;DHT22;20215;53.130;6.408;2023-02-01T16:54:55;13.60;81.80
33931;DHT22;20215;53.130;6.408;2023-02-01T16:57:20;13.60;81.80
33931;DHT22;20215;53.130;6.408;2023-02-01T16:59:51;13.60;81.80
33931;DHT22;20215;53.130;6.408;2023-02-01T17:02:19;13.60;82.00
33931;DHT22;20215;53.130;6.408;2023-02-01T17:04:45;13.60;81.80
33931;DHT22;20215;53.130;6.408;2023-02-01T17:07:18;13.60;81.90
33931;DHT22;20215;53.130;6.408;2023-02-01T17:09:44;13.60;82.00
33931;DHT22;20215;53.130;6.408;2023-02-01T17:12:28;13.60;82.00
33931;DHT22;20215;53.130;6.408;2023-02-01T17:14:55;13.60;81.70
33931;DHT22;20215;53.130;6.408;2023-02-01T17:17:22;13.50;81.90
33931;DHT22;20215;53.130;6.408;2023-02-01T17:19:50;13.50;81.90
33931;DHT22;20215;53.130;6.408;2023-02-01T17:22:19;13.50;81.80
33931;DHT22;20215;53.130;6.408;2023-02-01T17:24:44;13.50;82.00
33931;DHT22;20215;53.130;6.408;2023-02-01T17:27:10;13.50;82.00
33931;DHT22;20215;53.130;6.408;2023-02-01T17:29:36;13.50;82.00
33931;DHT22;20215;53.130;6.408;2023-02-01T17:32:02;13.50;82.00
33931;DHT22;20215;53.130;6.408;2023-02-01T17:34:28;13.50;82.00
33931;DHT22;20215;53.130;6.408;2023-02-01T17:36:54;13.50;82.10
33931;DHT22;20215;53.130;6.408;2023-02-01T17:39:20;13.50;82.50
33931;DHT22;20215;53.130;6.408;2023-02-01T17:42:05;13.60;82.20
33931;DHT22;20215;53.130;6.408;2023-02-01T17:44:31;13.60;82.00
33931;DHT22;20215;53.130;6.408;2023-02-01T17:46:57;13.60;82.20
33931;DHT22;20215;53.130;6.408;2023-02-01T17:49:24;13.60;82.20
33931;DHT22;20215;53.130;6.408;2023-02-01T17:51:50;13.60;81.80
33931;DHT22;20215;53.130;6.408;2023-02-01T17:54:16;13.60;81.90
33931;DHT22;20215;53.130;6.408;2023-02-01T17:56:42;13.60;81.80
33931;DHT22;20215;53.130;6.408;2023-02-01T17:59:08;13.60;81.90
33931;DHT22;20215;53.130;6.408;2023-02-01T18:01:34;13.60;81.90
33931;DHT22;20215;53.130;6.408;2023-02-01T18:03:59;13.60;81.50
33931;DHT22;20215;53.130;6.408;2023-02-01T18:06:26;13.60;81.80
33931;DHT22;20215;53.130;6.408;2023-02-01T18:08:52;13.50;81.60
33931;DHT22;20215;53.130;6.408;2023-02-01T18:11:23;13.50;81.90
33931;DHT22;20215;53.130;6.408;2023-02-01T18:13:50;13.60;82.00
33931;DHT22;20215;53.130;6.408;2023-02-01T18:16:23;13.60;82.00
33931;DHT22;20215;53.130;6.408;2023-02-01T18:18:50;13.60;81.90
33931;DHT22;20215;53.130;6.408;2023-02-01T18:21:16;13.50;81.80
33931;DHT22;20215;53.130;6.408;2023-02-01T18:23:42;13.50;82.10
33931;DHT22;20215;53.130;6.408;2023-02-01T18:26:13;13.50;82.00
33931;DHT22;20215;53.130;6.408;2023-02-01T18:28:39;13.60;81.90
33931;DHT22;20215;53.130;6.408;2023-02-01T18:31:07;13.60;82.10